createdAt,value
2023-04-15T00:00:55.169Z,541.00
2023-04-15T00:01:55.292Z,544.00
2023-04-15T00:02:55.988Z,543.00
2023-04-15T00:03:55.408Z,543.00
2023-04-15T00:04:55.309Z,543.00
2023-04-15T00:05:55.297Z,543.00
2023-04-15T00:06:55.308Z,542.00
2023-04-15T00:07:55.323Z,542.00
2023-04-15T00:08:55.344Z,543.00
2023-04-15T00:09:55.399Z,543.00
2023-04-15T00:10:55.401Z,542.00
2023-04-15T00:11:55.411Z,544.00
2023-04-15T00:12:55.426Z,543.00
2023-04-15T00:13:55.461Z,544.00
2023-04-15T00:14:55.515Z,546.00
2023-04-15T00:15:55.486Z,545.00
2023-04-15T00:16:55.602Z,545.00
2023-04-15T00:17:55.558Z,547.00
2023-04-15T00:18:55.568Z,545.00
2023-04-15T00:19:55.621Z,542.00
2023-04-15T00:20:55.688Z,540.00
2023-04-15T00:21:55.769Z,540.00
2023-04-15T00:22:55.815Z,538.00
2023-04-15T00:23:55.874Z,537.00
2023-04-15T00:24:55.939Z,540.00
2023-04-15T00:25:56.024Z,540.00
2023-04-15T00:26:56.065Z,539.00
2023-04-15T00:27:56.126Z,538.00
2023-04-15T00:28:56.192Z,537.00
2023-04-15T00:29:56.247Z,536.00
2023-04-15T00:30:56.375Z,538.00
2023-04-15T00:31:56.380Z,540.00
2023-04-15T00:32:56.482Z,540.00
2023-04-15T00:33:56.498Z,538.00
2023-04-15T00:34:56.589Z,538.00
2023-04-15T00:35:56.636Z,541.00
2023-04-15T00:36:56.685Z,541.00
2023-04-15T00:37:56.757Z,543.00
2023-04-15T00:38:56.829Z,540.00
2023-04-15T00:39:56.887Z,541.00
2023-04-15T00:40:56.945Z,540.00
2023-04-15T00:41:57.036Z,539.00
2023-04-15T00:42:57.069Z,539.00
2023-04-15T00:43:57.124Z,538.00
2023-04-15T00:44:57.189Z,541.00
2023-04-15T00:45:57.277Z,539.00
2023-04-15T00:46:57.321Z,536.00
2023-04-15T00:47:57.446Z,538.00
2023-04-15T00:48:57.615Z,539.00
2023-04-15T00:49:57.514Z,539.00
2023-04-15T00:50:57.583Z,539.00
2023-04-15T00:51:57.646Z,536.00
2023-04-15T00:52:57.717Z,536.00
2023-04-15T00:53:57.782Z,536.00
2023-04-15T00:54:57.849Z,536.00
2023-04-15T00:55:57.915Z,533.00
2023-04-15T00:56:57.994Z,531.00
2023-04-15T00:57:58.070Z,530.00
2023-04-15T00:58:58.419Z,531.00
2023-04-15T00:59:58.184Z,529.00
2023-04-15T01:00:58.272Z,532.00
2023-04-15T01:01:58.463Z,532.00
2023-04-15T01:02:58.565Z,532.00
2023-04-15T01:03:58.716Z,533.00
2023-04-15T01:04:58.521Z,533.00
2023-04-15T01:05:58.830Z,533.00
2023-04-15T01:06:58.654Z,534.00
2023-04-15T01:07:58.718Z,532.00
2023-04-15T01:08:59.238Z,530.00
2023-04-15T01:09:58.863Z,529.00
2023-04-15T01:10:58.935Z,529.00
2023-04-15T01:11:58.997Z,528.00
2023-04-15T01:12:59.063Z,528.00
2023-04-15T01:13:59.149Z,530.00
2023-04-15T01:14:59.198Z,529.00
2023-04-15T01:15:59.301Z,529.00
2023-04-15T01:16:59.337Z,531.00
2023-04-15T01:17:59.443Z,533.00
2023-04-15T01:18:59.678Z,532.00
2023-04-15T01:19:59.551Z,531.00
2023-04-15T01:20:59.595Z,531.00
2023-04-15T01:21:59.661Z,531.00
2023-04-15T01:22:59.728Z,531.00
2023-04-15T01:23:59.799Z,532.00
2023-04-15T01:24:59.864Z,530.00
2023-04-15T01:25:59.936Z,530.00
2023-04-15T01:27:00.008Z,532.00
2023-04-15T01:28:00.075Z,534.00
2023-04-15T01:29:00.391Z,534.00
2023-04-15T01:30:00.225Z,535.00
2023-04-15T01:31:00.269Z,536.00
2023-04-15T01:32:00.339Z,539.00
2023-04-15T01:33:00.476Z,536.00
2023-04-15T01:34:00.476Z,537.00
2023-04-15T01:35:00.542Z,536.00
2023-04-15T01:36:00.598Z,533.00
2023-04-15T01:37:00.665Z,532.00
2023-04-15T01:38:00.723Z,530.00
2023-04-15T01:39:00.994Z,533.00
2023-04-15T01:40:00.861Z,532.00
2023-04-15T01:41:00.909Z,530.00
2023-04-15T01:42:00.971Z,531.00
2023-04-15T01:43:01.041Z,527.00
2023-04-15T01:44:01.106Z,528.00
2023-04-15T01:45:01.185Z,529.00
2023-04-15T01:46:01.261Z,530.00
2023-04-15T01:47:01.360Z,528.00
2023-04-15T01:48:01.388Z,532.00
2023-04-15T01:49:02.014Z,533.00
2023-04-15T01:50:01.495Z,535.00
2023-04-15T01:51:01.559Z,538.00
2023-04-15T01:52:01.624Z,536.00
2023-04-15T01:53:01.687Z,535.00
2023-04-15T01:54:01.762Z,531.00
2023-04-15T01:55:01.834Z,531.00
2023-04-15T01:56:01.902Z,528.00
2023-04-15T01:57:01.975Z,529.00
2023-04-15T01:58:02.031Z,533.00
2023-04-15T01:59:02.419Z,532.00
2023-04-15T02:00:02.165Z,529.00
2023-04-15T02:01:02.338Z,529.00
2023-04-15T02:02:02.448Z,528.00
2023-04-15T02:03:02.438Z,525.00
2023-04-15T02:04:02.461Z,526.00
2023-04-15T02:05:02.510Z,527.00
2023-04-15T02:06:02.586Z,529.00
2023-04-15T02:07:02.653Z,528.00
2023-04-15T02:08:02.703Z,526.00
2023-04-15T02:09:02.959Z,525.00
2023-04-15T02:10:02.866Z,523.00
2023-04-15T02:11:02.911Z,522.00
2023-04-15T02:12:02.984Z,523.00
2023-04-15T02:13:03.054Z,524.00
2023-04-15T02:14:03.120Z,527.00
2023-04-15T02:15:03.230Z,527.00
2023-04-15T02:16:03.326Z,525.00
2023-04-15T02:17:03.326Z,526.00
2023-04-15T02:18:03.530Z,526.00
2023-04-15T02:19:03.456Z,527.00
2023-04-15T02:20:03.528Z,527.00
2023-04-15T02:21:03.590Z,530.00
2023-04-15T02:22:03.687Z,526.00
2023-04-15T02:23:03.736Z,525.00
2023-04-15T02:24:03.794Z,526.00
2023-04-15T02:25:03.855Z,524.00
2023-04-15T02:26:03.927Z,525.00
2023-04-15T02:27:03.993Z,527.00
2023-04-15T02:28:04.054Z,528.00
2023-04-15T02:29:04.114Z,530.00
2023-04-15T02:30:04.178Z,529.00
2023-04-15T02:31:04.246Z,527.00
2023-04-15T02:32:04.429Z,524.00
2023-04-15T02:33:04.378Z,523.00
2023-04-15T02:34:04.456Z,520.00
2023-04-15T02:35:04.501Z,517.00
2023-04-15T02:36:04.567Z,519.00
2023-04-15T02:37:04.630Z,517.00
2023-04-15T02:38:04.696Z,518.00
2023-04-15T02:39:04.768Z,518.00
2023-04-15T02:40:04.833Z,519.00
2023-04-15T02:41:04.892Z,520.00
2023-04-15T02:42:04.969Z,521.00
2023-04-15T02:43:05.025Z,521.00
2023-04-15T02:44:05.092Z,521.00
2023-04-15T02:45:05.163Z,524.00
2023-04-15T02:46:05.311Z,528.00
2023-04-15T02:47:05.333Z,524.00
2023-04-15T02:48:05.412Z,525.00
2023-04-15T02:49:05.430Z,528.00
2023-04-15T02:50:05.527Z,525.00
2023-04-15T02:51:05.567Z,524.00
2023-04-15T02:52:05.642Z,524.00
2023-04-15T02:53:05.707Z,521.00
2023-04-15T02:54:05.777Z,520.00
2023-04-15T02:55:05.836Z,520.00
2023-04-15T02:56:04.894Z,519.00
2023-04-15T02:57:05.960Z,521.00
2023-04-15T02:58:06.025Z,521.00
2023-04-15T02:59:06.090Z,523.00
2023-04-15T03:00:06.158Z,522.00
2023-04-15T03:01:06.239Z,522.00
2023-04-15T03:02:06.317Z,523.00
2023-04-15T03:03:06.635Z,523.00
2023-04-15T03:04:06.470Z,521.00
2023-04-15T03:05:06.483Z,520.00
2023-04-15T03:06:06.569Z,521.00
2023-04-15T03:07:06.610Z,521.00
2023-04-15T03:08:06.690Z,524.00
2023-04-15T03:09:06.747Z,526.00
2023-04-15T03:10:06.816Z,525.00
2023-04-15T03:11:06.876Z,528.00
2023-04-15T03:12:06.940Z,529.00
2023-04-15T03:13:07.046Z,529.00
2023-04-15T03:14:07.141Z,529.00
2023-04-15T03:15:07.141Z,527.00
2023-04-15T03:16:07.232Z,526.00
2023-04-15T03:17:07.268Z,523.00
2023-04-15T03:18:07.333Z,521.00
2023-04-15T03:19:07.399Z,522.00
2023-04-15T03:20:07.517Z,524.00
2023-04-15T03:21:07.536Z,524.00
2023-04-15T03:22:07.622Z,524.00
2023-04-15T03:23:07.658Z,523.00
2023-04-15T03:24:07.729Z,524.00
2023-04-15T03:25:07.801Z,523.00
2023-04-15T03:26:07.879Z,522.00
2023-04-15T03:27:07.932Z,521.00
2023-04-15T03:28:08.008Z,520.00
2023-04-15T03:29:08.071Z,521.00
2023-04-15T03:30:08.165Z,523.00
2023-04-15T03:31:08.297Z,524.00
2023-04-15T03:32:08.293Z,523.00
2023-04-15T03:33:08.357Z,523.00
2023-04-15T03:34:08.435Z,525.00
2023-04-15T03:35:08.518Z,523.00
2023-04-15T03:36:08.574Z,521.00
2023-04-15T03:37:08.642Z,522.00
2023-04-15T03:38:08.740Z,522.00
2023-04-15T03:39:08.793Z,524.00
2023-04-15T03:40:08.856Z,524.00
2023-04-15T03:41:08.929Z,523.00
2023-04-15T03:42:08.990Z,522.00
2023-04-15T03:43:09.068Z,523.00
2023-04-15T03:44:09.134Z,520.00
2023-04-15T03:45:09.250Z,524.00
2023-04-15T03:46:09.310Z,523.00
2023-04-15T03:47:09.348Z,522.00
2023-04-15T03:48:17.316Z,522.00
2023-04-15T03:49:09.430Z,521.00
2023-04-15T03:50:09.438Z,521.00
2023-04-15T03:51:09.452Z,520.00
2023-04-15T03:52:09.465Z,518.00
2023-04-15T03:53:09.475Z,518.00
2023-04-15T03:54:09.516Z,518.00
2023-04-15T03:55:09.503Z,520.00
2023-04-15T03:56:09.526Z,519.00
2023-04-15T03:57:09.524Z,519.00
2023-04-15T03:58:09.544Z,518.00
2023-04-15T03:59:09.556Z,521.00
2023-04-15T04:00:09.580Z,521.00
2023-04-15T04:01:09.587Z,522.00
2023-04-15T04:02:09.757Z,524.00
2023-04-15T04:03:09.834Z,523.00
2023-04-15T04:04:09.687Z,521.00
2023-04-15T04:05:09.628Z,523.00
2023-04-15T04:06:09.634Z,520.00
2023-04-15T04:07:09.645Z,521.00
2023-04-15T04:08:09.663Z,519.00
2023-04-15T04:09:09.708Z,518.00
2023-04-15T04:10:09.716Z,519.00
2023-04-15T04:11:09.701Z,517.00
2023-04-15T04:12:09.715Z,515.00
2023-04-15T04:13:09.719Z,516.00
2023-04-15T04:14:09.739Z,514.00
2023-04-15T04:15:09.752Z,518.00
2023-04-15T04:16:09.856Z,518.00
2023-04-15T04:17:09.917Z,519.00
2023-04-15T04:18:09.943Z,520.00
2023-04-15T04:19:10.048Z,520.00
2023-04-15T04:20:10.088Z,519.00
2023-04-15T04:21:10.159Z,518.00
2023-04-15T04:22:10.229Z,518.00
2023-04-15T04:23:10.309Z,517.00
2023-04-15T04:24:10.377Z,516.00
2023-04-15T04:25:10.457Z,517.00
2023-04-15T04:26:10.571Z,514.00
2023-04-15T04:27:10.601Z,513.00
2023-04-15T04:28:10.680Z,513.00
2023-04-15T04:29:10.763Z,516.00
2023-04-15T04:30:10.830Z,516.00
2023-04-15T04:31:10.917Z,518.00
2023-04-15T04:32:11.063Z,518.00
2023-04-15T04:33:11.037Z,518.00
2023-04-15T04:34:11.103Z,518.00
2023-04-15T04:35:11.171Z,518.00
2023-04-15T04:36:11.243Z,516.00
2023-04-15T04:37:11.306Z,517.00
2023-04-15T04:38:11.380Z,516.00
2023-04-15T04:39:11.450Z,518.00
2023-04-15T04:40:11.510Z,517.00
2023-04-15T04:41:11.593Z,517.00
2023-04-15T04:42:11.674Z,517.00
2023-04-15T04:43:11.722Z,515.00
2023-04-15T04:44:11.800Z,514.00
2023-04-15T04:45:11.861Z,514.00
2023-04-15T04:46:11.992Z,516.00
2023-04-15T04:47:12.014Z,516.00
2023-04-15T04:48:12.081Z,518.00
2023-04-15T04:49:12.140Z,519.00
2023-04-15T04:50:12.226Z,519.00
2023-04-15T04:51:12.285Z,520.00
2023-04-15T04:52:12.362Z,518.00
2023-04-15T04:53:12.436Z,514.00
2023-04-15T04:54:12.513Z,515.00
2023-04-15T04:55:12.581Z,515.00
2023-04-15T04:56:12.657Z,515.00
2023-04-15T04:57:12.721Z,512.00
2023-04-15T04:58:12.842Z,510.00
2023-04-15T04:59:12.872Z,510.00
2023-04-15T05:00:13.007Z,510.00
2023-04-15T05:01:13.126Z,508.00
2023-04-15T05:02:13.208Z,511.00
2023-04-15T05:03:13.298Z,512.00
2023-04-15T05:04:13.486Z,515.00
2023-04-15T05:05:13.336Z,516.00
2023-04-15T05:06:13.429Z,516.00
2023-04-15T05:07:13.479Z,514.00
2023-04-15T05:08:13.544Z,512.00
2023-04-15T05:09:13.609Z,509.00
2023-04-15T05:10:13.671Z,510.00
2023-04-15T05:11:13.786Z,511.00
2023-04-15T05:12:13.818Z,510.00
2023-04-15T05:13:13.898Z,512.00
2023-04-15T05:14:13.992Z,514.00
2023-04-15T05:15:14.065Z,513.00
2023-04-15T05:16:14.171Z,514.00
2023-04-15T05:17:14.199Z,511.00
2023-04-15T05:18:14.280Z,514.00
2023-04-15T05:19:14.351Z,514.00
2023-04-15T05:20:14.455Z,515.00
2023-04-15T05:21:14.513Z,515.00
2023-04-15T05:22:14.584Z,517.00
2023-04-15T05:23:14.660Z,517.00
2023-04-15T05:24:14.748Z,516.00
2023-04-15T05:25:14.836Z,516.00
2023-04-15T05:26:14.896Z,516.00
2023-04-15T05:27:14.973Z,516.00
2023-04-15T05:28:15.056Z,516.00
2023-04-15T05:29:15.135Z,513.00
2023-04-15T05:30:15.289Z,510.00
2023-04-15T05:31:15.322Z,511.00
2023-04-15T05:32:15.370Z,508.00
2023-04-15T05:33:15.443Z,509.00
2023-04-15T05:34:15.519Z,511.00
2023-04-15T05:35:15.596Z,513.00
2023-04-15T05:36:15.675Z,512.00
2023-04-15T05:37:15.753Z,513.00
2023-04-15T05:38:15.844Z,512.00
2023-04-15T05:39:15.903Z,513.00
2023-04-15T05:40:15.978Z,512.00
2023-04-15T05:41:17.800Z,512.00
2023-04-15T05:42:16.074Z,510.00
2023-04-15T05:43:16.072Z,509.00
2023-04-15T05:44:16.088Z,510.00
2023-04-15T05:45:16.104Z,509.00
2023-04-15T05:46:16.172Z,508.00
2023-04-15T05:47:16.104Z,508.00
2023-04-15T05:48:16.108Z,509.00
2023-04-15T05:49:16.115Z,510.00
2023-04-15T05:50:16.119Z,512.00
2023-04-15T05:51:16.152Z,513.00
2023-04-15T05:52:16.140Z,512.00
2023-04-15T05:53:16.150Z,510.00
2023-04-15T05:54:17.704Z,510.00
2023-04-15T05:55:16.176Z,523.00
2023-04-15T05:56:16.171Z,515.00
2023-04-15T05:57:16.192Z,499.00
2023-04-15T05:58:16.221Z,455.00
2023-04-15T05:59:16.251Z,461.00
2023-04-15T06:00:16.417Z,480.00
2023-04-15T06:01:16.325Z,489.00
2023-04-15T06:02:16.528Z,509.00
2023-04-15T06:03:16.475Z,522.00
2023-04-15T06:04:16.466Z,529.00
2023-04-15T06:05:16.443Z,533.00
2023-04-15T06:06:16.463Z,540.00
2023-04-15T06:07:16.487Z,566.00
2023-04-15T06:08:16.513Z,579.00
2023-04-15T06:09:16.534Z,590.00
2023-04-15T06:10:16.557Z,605.00
2023-04-15T06:11:16.565Z,625.00
2023-04-15T06:12:16.581Z,643.00
2023-04-15T06:13:16.600Z,656.00
2023-04-15T06:14:16.619Z,670.00
2023-04-15T06:15:16.633Z,680.00
2023-04-15T06:16:16.683Z,686.00
2023-04-15T06:17:16.665Z,695.00
2023-04-15T06:18:16.706Z,707.00
2023-04-15T06:19:16.700Z,714.00
2023-04-15T06:20:16.699Z,729.00
2023-04-15T06:21:16.712Z,739.00
2023-04-15T06:22:16.722Z,748.00
2023-04-15T06:23:16.737Z,760.00
2023-04-15T06:24:16.750Z,770.00
2023-04-15T06:25:16.755Z,782.00
2023-04-15T06:26:16.759Z,790.00
2023-04-15T06:27:16.815Z,803.00
2023-04-15T06:28:16.784Z,813.00
2023-04-15T06:29:16.807Z,822.00
2023-04-15T06:30:16.807Z,833.00
2023-04-15T06:31:16.832Z,846.00
2023-04-15T06:32:16.828Z,860.00
2023-04-15T06:33:16.839Z,882.00
2023-04-15T06:34:16.941Z,888.00
2023-04-15T06:35:16.987Z,897.00
2023-04-15T06:36:17.047Z,905.00
2023-04-15T06:37:17.099Z,917.00
2023-04-15T06:38:17.150Z,930.00
2023-04-15T06:39:17.201Z,939.00
2023-04-15T06:40:17.267Z,950.00
2023-04-15T06:41:17.297Z,967.00
2023-04-15T06:42:17.336Z,980.00
2023-04-15T06:43:17.374Z,987.00
2023-04-15T06:44:17.427Z,996.00
2023-04-15T06:45:17.466Z,1008.00
2023-04-15T06:46:17.549Z,1025.00
2023-04-15T06:47:17.586Z,1034.00
2023-04-15T06:48:17.564Z,1043.00
2023-04-15T06:49:17.589Z,1054.00
2023-04-15T06:50:17.667Z,1064.00
2023-04-15T06:51:17.658Z,1072.00
2023-04-15T06:52:17.691Z,1078.00
2023-04-15T06:53:17.722Z,1086.00
2023-04-15T06:54:17.747Z,1095.00
2023-04-15T06:55:17.766Z,1103.00
2023-04-15T06:56:17.793Z,1100.00
2023-04-15T06:57:17.816Z,1112.00
2023-04-15T06:58:17.843Z,1128.00
2023-04-15T06:59:17.861Z,1142.00
2023-04-15T07:00:17.887Z,1150.00
2023-04-15T07:01:17.935Z,1162.00
2023-04-15T07:02:17.984Z,1171.00
2023-04-15T07:03:17.992Z,1182.00
2023-04-15T07:04:18.017Z,1188.00
2023-04-15T07:05:17.988Z,1198.00
2023-04-15T07:06:18.031Z,1218.00
2023-04-15T07:07:18.037Z,1210.00
2023-04-15T07:08:18.049Z,1089.00
2023-04-15T07:09:18.090Z,1076.00
2023-04-15T07:10:18.117Z,1061.00
2023-04-15T07:11:18.157Z,1019.00
2023-04-15T07:12:18.258Z,999.00
2023-04-15T07:13:18.273Z,987.00
2023-04-15T07:14:18.364Z,978.00
2023-04-15T07:15:18.410Z,973.00
2023-04-15T07:16:18.549Z,960.00
2023-04-15T07:17:18.602Z,951.00
2023-04-15T07:18:18.579Z,829.00
2023-04-15T07:19:18.589Z,730.00
2023-04-15T07:20:18.639Z,691.00
2023-04-15T07:21:18.708Z,586.00
2023-04-15T07:22:18.803Z,611.00
2023-04-15T07:23:18.827Z,566.00
2023-04-15T07:24:18.867Z,560.00
2023-04-15T07:25:19.007Z,561.00
2023-04-15T07:26:19.054Z,555.00
2023-04-15T07:27:19.149Z,561.00
2023-04-15T07:28:19.247Z,566.00
2023-04-15T07:29:19.340Z,573.00
2023-04-15T07:30:19.428Z,592.00
2023-04-15T07:31:19.541Z,601.00
2023-04-15T07:32:19.597Z,608.00
2023-04-15T07:33:19.612Z,613.00
2023-04-15T07:34:19.664Z,620.00
2023-04-15T07:35:19.690Z,626.00
2023-04-15T07:36:19.717Z,630.00
2023-04-15T07:37:19.751Z,632.00
2023-04-15T07:38:19.883Z,636.00
2023-04-15T07:39:19.912Z,644.00
2023-04-15T07:40:19.994Z,631.00
2023-04-15T07:41:20.086Z,651.00
2023-04-15T07:42:20.162Z,707.00
2023-04-15T07:43:20.249Z,730.00
2023-04-15T07:44:20.309Z,726.00
2023-04-15T07:45:20.375Z,745.00
2023-04-15T07:46:20.480Z,763.00
2023-04-15T07:47:20.505Z,777.00
2023-04-15T07:48:20.481Z,790.00
2023-04-15T07:49:20.497Z,797.00
2023-04-15T07:50:20.541Z,806.00
2023-04-15T07:51:20.574Z,821.00
2023-04-15T07:52:20.632Z,832.00
2023-04-15T07:53:20.696Z,848.00
2023-04-15T07:54:20.807Z,855.00
2023-04-15T07:55:20.870Z,867.00
2023-04-15T07:56:20.957Z,876.00
2023-04-15T07:57:21.030Z,885.00
2023-04-15T07:58:21.108Z,923.00
2023-04-15T07:59:21.176Z,933.00
2023-04-15T08:00:21.248Z,943.00
2023-04-15T08:01:21.310Z,948.00
2023-04-15T08:02:21.490Z,954.00
2023-04-15T08:03:21.492Z,960.00
2023-04-15T08:04:21.646Z,968.00
2023-04-15T08:05:21.589Z,982.00
2023-04-15T08:06:21.618Z,989.00
2023-04-15T08:07:21.680Z,997.00
2023-04-15T08:08:21.738Z,1003.00
2023-04-15T08:09:21.772Z,1012.00
2023-04-15T08:10:21.892Z,1020.00
2023-04-15T08:11:21.878Z,1030.00
2023-04-15T08:12:21.916Z,1043.00
2023-04-15T08:13:21.971Z,1053.00
2023-04-15T08:14:22.002Z,1064.00
2023-04-15T08:15:22.079Z,1076.00
2023-04-15T08:16:22.101Z,1092.00
2023-04-15T08:17:22.175Z,1103.00
2023-04-15T08:18:22.164Z,1110.00
2023-04-15T08:19:22.208Z,1118.00
2023-04-15T08:20:22.258Z,1131.00
2023-04-15T08:21:22.292Z,1143.00
2023-04-15T08:22:22.463Z,1164.00
2023-04-15T08:23:22.374Z,1173.00
2023-04-15T08:24:22.396Z,1182.00
2023-04-15T08:25:22.450Z,1197.00
2023-04-15T08:26:22.481Z,1205.00
2023-04-15T08:27:22.536Z,878.00
2023-04-15T08:28:22.603Z,864.00
2023-04-15T08:29:22.675Z,876.00
2023-04-15T08:30:22.709Z,901.00
2023-04-15T08:31:22.810Z,940.00
2023-04-15T08:32:22.833Z,944.00
2023-04-15T08:33:22.859Z,1021.00
2023-04-15T08:34:22.909Z,1049.00
2023-04-15T08:35:23.001Z,1071.00
2023-04-15T08:36:23.051Z,1077.00
2023-04-15T08:37:23.122Z,1076.00
2023-04-15T08:38:23.235Z,1093.00
2023-04-15T08:39:23.280Z,1103.00
2023-04-15T08:40:23.328Z,1113.00
2023-04-15T08:41:23.449Z,1118.00
2023-04-15T08:42:23.480Z,1124.00
2023-04-15T08:43:23.530Z,1130.00
2023-04-15T08:44:23.570Z,1134.00
2023-04-15T08:45:23.658Z,1143.00
2023-04-15T08:46:23.725Z,1154.00
2023-04-15T08:47:23.768Z,1163.00
2023-04-15T08:48:23.783Z,1168.00
2023-04-15T08:49:23.826Z,1168.00
2023-04-15T08:50:23.875Z,1168.00
2023-04-15T08:51:25.062Z,1162.00
2023-04-15T08:52:23.974Z,1152.00
2023-04-15T08:53:24.021Z,1144.00
2023-04-15T08:54:24.066Z,1137.00
2023-04-15T08:55:24.119Z,1128.00
2023-04-15T08:56:24.177Z,1128.00
2023-04-15T08:57:24.196Z,1129.00
2023-04-15T08:58:24.258Z,1138.00
2023-04-15T08:59:24.268Z,1148.00
2023-04-15T09:00:24.297Z,1156.00
2023-04-15T09:01:24.377Z,1166.00
2023-04-15T09:02:24.469Z,1178.00
2023-04-15T09:03:24.454Z,1183.00
2023-04-15T09:04:24.428Z,1185.00
2023-04-15T09:05:24.445Z,1198.00
2023-04-15T09:06:24.473Z,1207.00
2023-04-15T09:07:24.500Z,1213.00
2023-04-15T09:08:24.609Z,1217.00
2023-04-15T09:09:24.564Z,1227.00
2023-04-15T09:10:24.579Z,1237.00
2023-04-15T09:11:24.594Z,1247.00
2023-04-15T09:12:24.611Z,1258.00
2023-04-15T09:13:24.646Z,1273.00
2023-04-15T09:14:24.722Z,1284.00
2023-04-15T09:15:24.686Z,1290.00
2023-04-15T09:16:24.816Z,1305.00
2023-04-15T09:17:24.776Z,1313.00
2023-04-15T09:18:24.744Z,1319.00
2023-04-15T09:19:24.773Z,1327.00
2023-04-15T09:20:24.792Z,1336.00
2023-04-15T09:21:24.797Z,1347.00
2023-04-15T09:22:24.832Z,1362.00
2023-04-15T09:23:24.840Z,1374.00
2023-04-15T09:24:24.855Z,1389.00
2023-04-15T09:25:24.933Z,1375.00
2023-04-15T09:26:24.892Z,1387.00
2023-04-15T09:27:24.908Z,1400.00
2023-04-15T09:28:24.934Z,1407.00
2023-04-15T09:29:24.950Z,1416.00
2023-04-15T09:30:24.995Z,1424.00
2023-04-15T09:31:25.063Z,1435.00
2023-04-15T09:32:25.040Z,1443.00
2023-04-15T09:33:25.005Z,1453.00
2023-04-15T09:34:25.072Z,1460.00
2023-04-15T09:35:25.033Z,1469.00
2023-04-15T09:36:25.087Z,1483.00
2023-04-15T09:37:32.417Z,1491.00
2023-04-15T09:38:25.061Z,1498.00
2023-04-15T09:39:25.060Z,1492.00
2023-04-15T09:40:25.067Z,1263.00
2023-04-15T09:41:25.068Z,1072.00
2023-04-15T09:42:25.072Z,1053.00
2023-04-15T09:43:25.080Z,1010.00
2023-04-15T09:44:25.113Z,958.00
2023-04-15T09:45:28.811Z,937.00
2023-04-15T09:46:25.139Z,906.00
2023-04-15T09:47:25.146Z,873.00
2023-04-15T09:48:25.124Z,933.00
2023-04-15T09:49:25.217Z,946.00
2023-04-15T09:50:25.247Z,826.00
2023-04-15T09:51:25.311Z,812.00
2023-04-15T09:52:25.373Z,797.00
2023-04-15T09:53:25.419Z,792.00
2023-04-15T09:54:25.465Z,779.00
2023-04-15T09:55:25.485Z,777.00
2023-04-15T09:56:25.511Z,766.00
2023-04-15T09:57:25.534Z,783.00
2023-04-15T09:58:25.547Z,976.00
2023-04-15T09:59:25.634Z,1057.00
2023-04-15T10:00:25.715Z,1105.00
2023-04-15T10:01:25.820Z,1102.00
2023-04-15T10:02:25.981Z,1093.00
2023-04-15T10:03:26.139Z,1082.00
2023-04-15T10:04:26.071Z,1075.00
2023-04-15T10:05:26.055Z,1068.00
2023-04-15T10:06:26.106Z,1029.00
2023-04-15T10:07:26.683Z,1030.00
2023-04-15T10:08:26.234Z,1025.00
2023-04-15T10:09:26.279Z,1018.00
2023-04-15T10:10:26.333Z,1018.00
2023-04-15T10:11:26.391Z,1011.00
2023-04-15T10:12:26.453Z,1004.00
2023-04-15T10:13:26.479Z,1003.00
2023-04-15T10:14:26.525Z,999.00
2023-04-15T10:15:26.566Z,991.00
2023-04-15T10:16:26.631Z,989.00
2023-04-15T10:17:26.689Z,992.00
2023-04-15T10:18:26.722Z,998.00
2023-04-15T10:19:26.722Z,996.00
2023-04-15T10:20:26.761Z,994.00
2023-04-15T10:21:26.788Z,999.00
2023-04-15T10:22:26.823Z,1006.00
2023-04-15T10:23:26.857Z,1012.00
2023-04-15T10:24:26.879Z,1014.00
2023-04-15T10:25:26.919Z,1020.00
2023-04-15T10:26:26.935Z,1026.00
2023-04-15T10:27:26.959Z,1035.00
2023-04-15T10:28:26.989Z,1046.00
2023-04-15T10:29:27.010Z,1057.00
2023-04-15T10:30:27.031Z,1062.00
2023-04-15T10:31:27.072Z,1071.00
2023-04-15T10:32:27.075Z,1078.00
2023-04-15T10:33:27.064Z,1084.00
2023-04-15T10:34:27.104Z,1097.00
2023-04-15T10:35:27.119Z,1105.00
2023-04-15T10:36:27.101Z,1120.00
2023-04-15T10:37:27.117Z,1131.00
2023-04-15T10:38:27.130Z,1143.00
2023-04-15T10:39:27.145Z,1156.00
2023-04-15T10:40:27.157Z,1164.00
2023-04-15T10:41:27.153Z,1171.00
2023-04-15T10:42:27.167Z,1177.00
2023-04-15T10:43:27.164Z,1180.00
2023-04-15T10:44:27.194Z,1191.00
2023-04-15T10:45:27.263Z,1201.00
2023-04-15T10:46:27.261Z,1214.00
2023-04-15T10:47:27.237Z,1220.00
2023-04-15T10:48:27.253Z,1220.00
2023-04-15T10:49:27.267Z,1229.00
2023-04-15T10:50:27.310Z,1239.00
2023-04-15T10:51:27.291Z,1244.00
2023-04-15T10:52:27.300Z,1260.00
2023-04-15T10:53:27.313Z,1264.00
2023-04-15T10:54:27.342Z,1261.00
2023-04-15T10:55:27.345Z,1254.00
2023-04-15T10:56:27.358Z,1242.00
2023-04-15T10:57:27.383Z,1214.00
2023-04-15T10:58:27.413Z,1203.00
2023-04-15T10:59:27.487Z,1200.00
2023-04-15T11:00:27.448Z,1190.00
2023-04-15T11:01:27.469Z,1180.00
2023-04-15T11:02:27.679Z,1166.00
2023-04-15T11:03:27.618Z,1132.00
2023-04-15T11:04:27.692Z,1106.00
2023-04-15T11:05:27.554Z,1089.00
2023-04-15T11:06:27.565Z,1078.00
2023-04-15T11:07:27.551Z,1071.00
2023-04-15T11:08:27.571Z,1067.00
2023-04-15T11:09:27.602Z,1068.00
2023-04-15T11:10:27.617Z,1067.00
2023-04-15T11:11:27.627Z,1071.00
2023-04-15T11:12:27.662Z,1075.00
2023-04-15T11:13:27.667Z,1076.00
2023-04-15T11:14:27.681Z,1076.00
2023-04-15T11:15:27.703Z,1073.00
2023-04-15T11:16:27.817Z,1073.00
2023-04-15T11:17:27.782Z,1072.00
2023-04-15T11:18:27.783Z,1072.00
2023-04-15T11:19:27.822Z,1070.00
2023-04-15T11:20:27.833Z,1072.00
2023-04-15T11:21:27.860Z,1071.00
2023-04-15T11:22:27.914Z,1068.00
2023-04-15T11:23:27.901Z,1071.00
2023-04-15T11:24:27.930Z,1072.00
2023-04-15T11:25:27.951Z,1074.00
2023-04-15T11:26:27.977Z,1072.00
2023-04-15T11:27:28.008Z,1068.00
2023-04-15T11:28:28.050Z,1066.00
2023-04-15T11:29:28.066Z,1066.00
2023-04-15T11:30:28.096Z,1064.00
2023-04-15T11:31:28.136Z,1061.00
2023-04-15T11:32:28.162Z,1060.00
2023-04-15T11:33:28.192Z,1059.00
2023-04-15T11:34:28.217Z,1057.00
2023-04-15T11:35:28.250Z,1055.00
2023-04-15T11:36:28.275Z,1051.00
2023-04-15T11:37:28.306Z,1050.00
2023-04-15T11:38:28.354Z,1051.00
2023-04-15T11:39:28.366Z,1048.00
2023-04-15T11:40:28.404Z,1047.00
2023-04-15T11:41:28.428Z,1044.00
2023-04-15T11:42:39.268Z,1043.00
2023-04-15T11:43:28.465Z,1040.00
2023-04-15T11:44:28.477Z,1040.00
2023-04-15T11:45:28.488Z,1041.00
2023-04-15T11:46:28.489Z,1043.00
2023-04-15T11:47:28.539Z,1042.00
2023-04-15T11:48:28.499Z,1041.00
2023-04-15T11:49:28.513Z,1041.00
2023-04-15T11:50:28.526Z,1041.00
2023-04-15T11:51:28.520Z,1041.00
2023-04-15T11:52:28.518Z,1042.00
2023-04-15T11:53:28.524Z,1042.00
2023-04-15T11:54:28.551Z,1043.00
2023-04-15T11:55:28.542Z,1041.00
2023-04-15T11:56:28.545Z,1043.00
2023-04-15T11:57:28.561Z,1041.00
2023-04-15T11:58:28.561Z,1038.00
2023-04-15T11:59:38.943Z,1037.00
2023-04-15T12:00:28.576Z,1038.00
2023-04-15T12:01:28.582Z,1036.00
2023-04-15T12:02:28.707Z,1037.00
2023-04-15T12:03:28.771Z,1033.00
2023-04-15T12:04:28.819Z,1031.00
2023-04-15T12:05:28.614Z,1026.00
2023-04-15T12:06:28.613Z,1026.00
2023-04-15T12:07:28.630Z,1024.00
2023-04-15T12:08:28.636Z,1024.00
2023-04-15T12:09:29.338Z,1022.00
2023-04-15T12:10:28.922Z,1020.00
2023-04-15T12:11:28.927Z,1020.00
2023-04-15T12:12:28.965Z,1022.00
2023-04-15T12:13:29.004Z,1020.00
2023-04-15T12:14:29.039Z,1017.00
2023-04-15T12:15:29.162Z,1016.00
2023-04-15T12:16:29.102Z,1015.00
2023-04-15T12:17:29.171Z,1013.00
2023-04-15T12:18:29.174Z,1012.00
2023-04-15T12:19:29.213Z,1010.00
2023-04-15T12:20:29.245Z,1009.00
2023-04-15T12:21:29.289Z,1008.00